Terminal Aerodrome Forecast
Issued by NWS

Home | Current Version | Previous Version | Text Only | Print | Product List | Glossary On
Versions: 1 2 3 4 5 6 7 8 9 10 11 12 13 14 15 16 17
000
FTUS44 KCRP 281700
TAFLRD
TAF
KLRD 281732Z 2818/2918 34007KT P6SM BKN012
      TEMPO 2818/2819 SCT012
     FM281900 VRB06KT P6SM FEW050
     FM290100 14002KT P6SM SKC=

USA.gov is the U.S. government's official web portal to all federal, state and local government web resources and services.